createdAt,value
2018-12-17T00:00:52.964Z,1.77
2018-12-17T00:01:53.104Z,1.77
2018-12-17T00:02:53.001Z,1.73
2018-12-17T00:03:53.054Z,1.71
2018-12-17T00:04:53.234Z,1.69
2018-12-17T00:05:53.041Z,1.74
2018-12-17T00:06:52.924Z,1.75
2018-12-17T00:07:53.065Z,1.74
2018-12-17T00:08:53.093Z,1.75
2018-12-17T00:09:52.928Z,1.74
2018-12-17T00:10:53.276Z,1.71
2018-12-17T00:11:53.165Z,1.75
2018-12-17T00:12:53.049Z,1.74
2018-12-17T00:13:53.057Z,1.72
2018-12-17T00:14:53.103Z,1.74
2018-12-17T00:15:53.090Z,1.77
2018-12-17T00:16:53.292Z,1.79
2018-12-17T00:17:52.899Z,1.8
2018-12-17T00:18:53.010Z,1.76
2018-12-17T00:19:53.172Z,1.75
2018-12-17T00:20:52.993Z,1.81
2018-12-17T00:21:53.269Z,1.81
2018-12-17T00:22:52.958Z,1.85
2018-12-17T00:23:53.028Z,1.82
2018-12-17T00:24:52.915Z,1.84
2018-12-17T00:25:52.920Z,1.83
2018-12-17T00:26:52.998Z,1.83
2018-12-17T00:27:53.036Z,1.86
2018-12-17T00:28:53.129Z,1.84
2018-12-17T00:29:52.894Z,1.8
2018-12-17T00:30:53.068Z,1.79
2018-12-17T00:31:53.058Z,1.77
2018-12-17T00:32:53.232Z,1.83
2018-12-17T00:33:53.062Z,1.82
2018-12-17T00:34:52.965Z,1.82
2018-12-17T00:35:53.113Z,1.82
2018-12-17T00:36:53.053Z,1.81
2018-12-17T00:37:53.192Z,1.81
2018-12-17T00:38:53.060Z,1.79
2018-12-17T00:39:53.273Z,1.78
2018-12-17T00:40:52.948Z,1.76
2018-12-17T00:41:53.098Z,1.79
2018-12-17T00:42:53.041Z,1.76
2018-12-17T00:43:53.779Z,1.75
2018-12-17T00:44:52.862Z,1.78
2018-12-17T00:45:53.166Z,1.76
2018-12-17T00:46:52.871Z,1.72
2018-12-17T00:47:53.036Z,1.71
2018-12-17T00:48:53.074Z,1.75
2018-12-17T00:49:53.035Z,1.76
2018-12-17T00:50:52.876Z,1.76
2018-12-17T00:51:53.216Z,1.73
2018-12-17T00:52:53.133Z,1.72
2018-12-17T00:53:52.890Z,1.7
2018-12-17T00:54:53.135Z,1.78
2018-12-17T00:55:52.858Z,1.73
2018-12-17T00:56:53.058Z,1.73
2018-12-17T00:57:52.848Z,1.73
2018-12-17T00:58:53.165Z,1.73
2018-12-17T00:59:52.862Z,1.73
2018-12-17T01:00:52.920Z,1.72
2018-12-17T01:01:53.287Z,1.69
2018-12-17T01:02:53.092Z,1.72
2018-12-17T01:03:52.910Z,1.7
2018-12-17T01:04:52.862Z,1.69
2018-12-17T01:05:52.856Z,1.68
2018-12-17T01:06:53.321Z,1.68
2018-12-17T01:07:52.884Z,1.7
2018-12-17T01:08:53.129Z,1.67
2018-12-17T01:09:52.914Z,1.66
2018-12-17T01:10:53.368Z,1.67
2018-12-17T01:11:53.074Z,1.67
2018-12-17T01:12:52.856Z,1.68
2018-12-17T01:13:52.817Z,1.75
2018-12-17T01:14:52.967Z,1.76
2018-12-17T01:15:53.029Z,1.74
2018-12-17T01:16:53.034Z,1.69
2018-12-17T01:17:52.819Z,1.74
2018-12-17T01:18:52.950Z,1.71
2018-12-17T01:19:53.058Z,1.7
2018-12-17T01:20:52.874Z,1.68
2018-12-17T01:21:52.834Z,1.7
2018-12-17T01:22:53.059Z,1.66
2018-12-17T01:23:52.811Z,1.66
2018-12-17T01:24:52.853Z,1.65
2018-12-17T01:25:53.203Z,1.66
2018-12-17T01:26:52.907Z,1.64
2018-12-17T01:27:52.806Z,1.59
2018-12-17T01:28:52.985Z,1.64
2018-12-17T01:29:53.110Z,1.66
2018-12-17T01:30:52.931Z,1.62
2018-12-17T01:31:52.836Z,1.63
2018-12-17T01:32:53.092Z,1.62
2018-12-17T01:33:52.831Z,1.63
2018-12-17T01:34:52.824Z,1.64
2018-12-17T01:35:52.835Z,1.66
2018-12-17T01:36:53.218Z,1.62
2018-12-17T01:37:52.865Z,1.64
2018-12-17T01:38:52.834Z,1.64
2018-12-17T01:39:52.808Z,1.67
2018-12-17T01:40:52.840Z,1.64
2018-12-17T01:41:52.822Z,1.66
2018-12-17T01:42:52.832Z,1.66
2018-12-17T01:43:52.891Z,1.67
2018-12-17T01:44:52.812Z,1.7
2018-12-17T01:45:52.806Z,1.74
2018-12-17T01:46:52.854Z,1.69
2018-12-17T01:47:52.813Z,1.71
2018-12-17T01:48:52.837Z,1.71
2018-12-17T01:49:52.806Z,1.7
2018-12-17T01:50:53.261Z,1.67
2018-12-17T01:51:53.049Z,1.73
2018-12-17T01:52:52.854Z,1.74
2018-12-17T01:53:53.605Z,1.71
2018-12-17T01:54:52.998Z,1.72
2018-12-17T01:55:53.021Z,1.74
2018-12-17T01:56:53.095Z,1.71
2018-12-17T01:57:52.662Z,1.7
2018-12-17T01:58:52.846Z,1.73
2018-12-17T01:59:52.826Z,1.71
2018-12-17T02:00:54.080Z,1.75
2018-12-17T02:01:53.033Z,1.75
2018-12-17T02:02:52.814Z,1.74
2018-12-17T02:03:53.012Z,1.77
2018-12-17T02:04:52.914Z,1.8
2018-12-17T02:05:53.231Z,1.78
2018-12-17T02:06:53.081Z,1.79
2018-12-17T02:07:52.783Z,1.82
2018-12-17T02:08:52.822Z,1.79
2018-12-17T02:09:52.851Z,1.75
2018-12-17T02:10:52.887Z,1.78
2018-12-17T02:11:52.796Z,1.75
2018-12-17T02:12:52.799Z,1.75
2018-12-17T02:13:52.805Z,1.76
2018-12-17T02:14:52.793Z,1.75
2018-12-17T02:15:52.953Z,1.73
2018-12-17T02:16:52.837Z,1.76
2018-12-17T02:17:53.282Z,1.8
2018-12-17T02:18:52.946Z,1.77
2018-12-17T02:19:52.828Z,1.79
2018-12-17T02:20:52.988Z,1.76
2018-12-17T02:21:52.725Z,1.77
2018-12-17T02:22:53.568Z,1.75
2018-12-17T02:23:52.763Z,1.74
2018-12-17T02:24:52.841Z,1.73
2018-12-17T02:25:52.947Z,1.74
2018-12-17T02:26:52.924Z,1.75
2018-12-17T02:27:53.173Z,1.71
2018-12-17T02:28:52.975Z,1.71
2018-12-17T02:29:53.118Z,1.69
2018-12-17T02:30:52.868Z,1.7
2018-12-17T02:31:52.837Z,1.7
2018-12-17T02:32:52.782Z,1.73
2018-12-17T02:33:53.107Z,1.73
2018-12-17T02:34:53.200Z,1.72
2018-12-17T02:35:52.852Z,1.72
2018-12-17T02:36:52.881Z,1.72
2018-12-17T02:37:53.157Z,1.71
2018-12-17T02:38:52.824Z,1.73
2018-12-17T02:39:52.678Z,1.69
2018-12-17T02:40:53.196Z,1.72
2018-12-17T02:41:52.986Z,1.71
2018-12-17T02:42:52.969Z,1.71
2018-12-17T02:43:53.112Z,1.72
2018-12-17T02:44:52.691Z,1.76
2018-12-17T02:45:52.905Z,1.74
2018-12-17T02:46:52.753Z,1.75
2018-12-17T02:47:52.933Z,1.76
2018-12-17T02:48:52.903Z,1.77
2018-12-17T02:49:53.069Z,1.76
2018-12-17T02:50:52.835Z,1.73
2018-12-17T02:51:52.718Z,1.75
2018-12-17T02:52:52.712Z,1.83
2018-12-17T02:53:52.875Z,1.83
2018-12-17T02:54:53.034Z,1.83
2018-12-17T02:55:52.803Z,1.8
2018-12-17T02:56:52.694Z,1.84
2018-12-17T02:57:52.734Z,1.83
2018-12-17T02:58:53.014Z,1.85
2018-12-17T02:59:52.679Z,1.84
2018-12-17T03:00:52.911Z,1.88
2018-12-17T03:01:52.691Z,1.92
2018-12-17T03:02:53.027Z,1.95
2018-12-17T03:03:53.090Z,1.95
2018-12-17T03:04:52.812Z,1.9
2018-12-17T03:05:52.754Z,1.88
2018-12-17T03:06:52.851Z,1.92
2018-12-17T03:07:52.869Z,1.85
2018-12-17T03:08:52.878Z,1.86
2018-12-17T03:09:52.672Z,1.87
2018-12-17T03:10:52.785Z,1.85
2018-12-17T03:11:52.943Z,1.94
2018-12-17T03:12:52.651Z,1.95
2018-12-17T03:13:52.653Z,1.88
2018-12-17T03:14:53.039Z,1.9
2018-12-17T03:15:52.647Z,1.87
2018-12-17T03:16:52.748Z,1.9
2018-12-17T03:17:52.921Z,1.93
2018-12-17T03:18:53.065Z,1.93
2018-12-17T03:19:52.631Z,1.93
2018-12-17T03:20:52.937Z,1.91
2018-12-17T03:21:52.638Z,1.9
2018-12-17T03:22:52.712Z,1.92
2018-12-17T03:23:52.874Z,1.94
2018-12-17T03:24:52.752Z,1.92
2018-12-17T03:25:52.666Z,1.92
2018-12-17T03:26:52.700Z,1.93
2018-12-17T03:27:52.680Z,1.91
2018-12-17T03:28:52.687Z,1.93
2018-12-17T03:29:52.644Z,1.91
2018-12-17T03:30:53.191Z,1.94
2018-12-17T03:31:52.656Z,1.94
2018-12-17T03:32:52.846Z,1.89
2018-12-17T03:33:52.654Z,1.88
2018-12-17T03:34:52.880Z,1.89
2018-12-17T03:35:52.721Z,1.9
2018-12-17T03:36:52.613Z,1.9
2018-12-17T03:37:53.017Z,1.91
2018-12-17T03:38:52.841Z,1.9
2018-12-17T03:39:52.692Z,1.91
2018-12-17T03:40:53.215Z,1.9
2018-12-17T03:41:52.861Z,1.91
2018-12-17T03:42:52.731Z,1.9
2018-12-17T03:43:52.746Z,1.88
2018-12-17T03:44:52.713Z,1.85
2018-12-17T03:45:53.197Z,1.86
2018-12-17T03:46:53.015Z,1.88
2018-12-17T03:47:52.630Z,1.85
2018-12-17T03:48:52.794Z,1.85
2018-12-17T03:49:52.730Z,1.89
2018-12-17T03:50:52.720Z,1.89
2018-12-17T03:51:53.015Z,1.87
2018-12-17T03:52:52.713Z,1.88
2018-12-17T03:53:52.663Z,1.88
2018-12-17T03:54:53.252Z,1.9
2018-12-17T03:55:52.684Z,1.86
2018-12-17T03:56:52.966Z,1.86
2018-12-17T03:57:52.641Z,1.87
2018-12-17T03:58:59.693Z,1.87
2018-12-17T03:59:52.599Z,1.88
2018-12-17T04:00:52.637Z,1.88
2018-12-17T04:01:52.748Z,1.87
2018-12-17T04:02:52.787Z,1.88
2018-12-17T04:03:52.631Z,1.89
2018-12-17T04:04:52.644Z,1.85
2018-12-17T04:05:52.605Z,1.84
2018-12-17T04:06:52.733Z,1.87
2018-12-17T04:07:53.450Z,1.87
2018-12-17T04:08:52.661Z,1.88
2018-12-17T04:09:53.015Z,1.89
2018-12-17T04:10:52.687Z,1.9
2018-12-17T04:11:52.664Z,1.88
2018-12-17T04:12:52.672Z,1.88
2018-12-17T04:13:52.745Z,1.91
2018-12-17T04:14:52.599Z,1.9
2018-12-17T04:15:52.908Z,1.88
2018-12-17T04:16:52.574Z,1.89
2018-12-17T04:17:52.620Z,1.89
2018-12-17T04:18:53.055Z,1.89
2018-12-17T04:19:52.698Z,1.91
2018-12-17T04:20:53.121Z,1.9
2018-12-17T04:21:53.212Z,1.9
2018-12-17T04:22:52.599Z,1.91
2018-12-17T04:23:52.876Z,1.9
2018-12-17T04:24:52.698Z,1.96
2018-12-17T04:25:53.062Z,1.94
2018-12-17T04:26:52.788Z,1.96
2018-12-17T04:27:52.630Z,1.94
2018-12-17T04:28:52.742Z,1.96
2018-12-17T04:29:52.612Z,1.96
2018-12-17T04:30:52.648Z,1.9
2018-12-17T04:31:52.814Z,1.91
2018-12-17T04:32:52.561Z,1.96
2018-12-17T04:33:52.770Z,1.92
2018-12-17T04:34:52.746Z,1.95
2018-12-17T04:35:53.421Z,1.93
2018-12-17T04:36:52.602Z,1.92
2018-12-17T04:37:52.696Z,1.91
2018-12-17T04:38:52.832Z,1.92
2018-12-17T04:39:52.786Z,1.91
2018-12-17T04:40:52.672Z,1.88
2018-12-17T04:41:52.628Z,1.9
2018-12-17T04:42:52.583Z,1.93
2018-12-17T04:43:52.656Z,1.93
2018-12-17T04:44:52.567Z,1.9
2018-12-17T04:45:52.757Z,1.92
2018-12-17T04:46:52.628Z,1.92
2018-12-17T04:47:52.619Z,1.92
2018-12-17T04:48:52.697Z,1.93
2018-12-17T04:49:52.546Z,1.97
2018-12-17T04:50:52.562Z,1.97
2018-12-17T04:51:52.552Z,1.95
2018-12-17T04:52:52.556Z,1.93
2018-12-17T04:53:52.591Z,1.91
2018-12-17T04:54:52.547Z,1.96
2018-12-17T04:55:52.611Z,1.92
2018-12-17T04:56:52.627Z,1.94
2018-12-17T04:57:52.832Z,1.91
2018-12-17T04:58:52.850Z,2
2018-12-17T04:59:52.514Z,1.98
2018-12-17T05:00:52.564Z,1.97
2018-12-17T05:01:52.597Z,1.97
2018-12-17T05:02:52.627Z,2
2018-12-17T05:03:52.510Z,1.97
2018-12-17T05:04:52.510Z,1.96
2018-12-17T05:05:52.511Z,1.98
2018-12-17T05:06:52.552Z,1.96
2018-12-17T05:07:52.489Z,1.97
2018-12-17T05:08:52.524Z,1.95
2018-12-17T05:09:52.626Z,1.98
2018-12-17T05:10:52.525Z,1.95
2018-12-17T05:11:52.668Z,2
2018-12-17T05:12:52.635Z,2
2018-12-17T05:13:52.522Z,1.97
2018-12-17T05:14:52.559Z,1.98
2018-12-17T05:15:52.708Z,2.03
2018-12-17T05:16:52.762Z,2.01
2018-12-17T05:17:52.486Z,2.01
2018-12-17T05:18:52.574Z,2.03
2018-12-17T05:19:52.685Z,2
2018-12-17T05:20:52.571Z,2
2018-12-17T05:21:52.619Z,2.06
2018-12-17T05:22:52.710Z,2.05
2018-12-17T05:23:52.852Z,2.02
2018-12-17T05:24:52.811Z,2.02
2018-12-17T05:25:52.579Z,1.99
2018-12-17T05:26:52.996Z,1.99
2018-12-17T05:27:52.799Z,1.99
2018-12-17T05:28:52.550Z,1.98
2018-12-17T05:29:52.537Z,1.96
2018-12-17T05:30:52.591Z,2.01
2018-12-17T05:31:52.696Z,2.03
2018-12-17T05:32:52.608Z,2.1
2018-12-17T05:33:53.382Z,2.07
2018-12-17T05:34:52.533Z,2.05
2018-12-17T05:35:52.613Z,2.07
2018-12-17T05:36:52.825Z,2.04
2018-12-17T05:37:52.655Z,2.05
2018-12-17T05:38:53.309Z,2.07
2018-12-17T05:39:52.503Z,2.08
2018-12-17T05:40:52.784Z,2.04
2018-12-17T05:41:52.602Z,2.11
2018-12-17T05:42:52.512Z,2.11
2018-12-17T05:43:52.907Z,2.13
2018-12-17T05:44:52.467Z,2.13
2018-12-17T05:45:52.498Z,2.15
2018-12-17T05:46:52.490Z,2.12
2018-12-17T05:47:52.521Z,2.12
2018-12-17T05:48:52.460Z,2.1
2018-12-17T05:49:52.700Z,2.11
2018-12-17T05:50:52.596Z,2.14
2018-12-17T05:51:52.872Z,2.11
2018-12-17T05:52:52.713Z,2.09
2018-12-17T05:53:52.441Z,2.07
2018-12-17T05:54:52.674Z,2.11
2018-12-17T05:55:52.473Z,2.12
2018-12-17T05:56:52.520Z,2.15
2018-12-17T05:57:52.562Z,2.13
2018-12-17T05:58:52.516Z,2.18
2018-12-17T05:59:52.572Z,2.19
2018-12-17T06:00:52.561Z,2.21
2018-12-17T06:01:52.591Z,2.19
2018-12-17T06:02:52.528Z,2.14
2018-12-17T06:03:52.465Z,2.11
2018-12-17T06:04:52.474Z,2.11
2018-12-17T06:05:52.533Z,2.13
2018-12-17T06:06:52.658Z,2.14
2018-12-17T06:07:52.743Z,2.11
2018-12-17T06:08:52.562Z,2.11
2018-12-17T06:09:52.422Z,2.11
2018-12-17T06:10:52.481Z,2.08
2018-12-17T06:11:52.480Z,2.13
2018-12-17T06:12:52.870Z,2.07
2018-12-17T06:13:52.468Z,2.08
2018-12-17T06:14:52.697Z,2.09
2018-12-17T06:15:52.430Z,2.06
2018-12-17T06:16:52.476Z,2.05
2018-12-17T06:17:52.564Z,2.06
2018-12-17T06:18:52.673Z,2.09
2018-12-17T06:19:52.456Z,2.05
2018-12-17T06:20:52.600Z,2.05
2018-12-17T06:21:52.598Z,2.03
2018-12-17T06:22:52.547Z,2.06
2018-12-17T06:23:52.848Z,2.05
2018-12-17T06:24:52.751Z,2.04
2018-12-17T06:25:52.686Z,2.03
2018-12-17T06:26:52.551Z,2.03
2018-12-17T06:27:52.461Z,2.04
2018-12-17T06:28:52.510Z,2.02
2018-12-17T06:29:52.550Z,2.07
2018-12-17T06:30:52.437Z,2.03
2018-12-17T06:31:52.548Z,2.06
2018-12-17T06:32:52.449Z,2.04
2018-12-17T06:33:52.396Z,2.05
2018-12-17T06:34:52.410Z,2.1
2018-12-17T06:35:52.492Z,2.07
2018-12-17T06:36:52.598Z,2.1
2018-12-17T06:37:52.423Z,2.1
2018-12-17T06:38:52.414Z,2.08
2018-12-17T06:39:52.653Z,2.04
2018-12-17T06:40:52.396Z,2.1
2018-12-17T06:41:52.402Z,2.06
2018-12-17T06:42:52.521Z,2.08
2018-12-17T06:43:52.485Z,2.11
2018-12-17T06:44:52.380Z,2.07
2018-12-17T06:45:52.388Z,2.05
2018-12-17T06:46:52.407Z,2.08
2018-12-17T06:47:52.394Z,2.12
2018-12-17T06:48:52.455Z,2.17
2018-12-17T06:49:52.618Z,2.15
2018-12-17T06:50:52.651Z,2.13
2018-12-17T06:51:52.415Z,2.14
2018-12-17T06:52:52.540Z,2.13
2018-12-17T06:53:52.591Z,2.15
2018-12-17T06:54:55.343Z,2.15
2018-12-17T06:55:52.467Z,2.14
2018-12-17T06:56:52.445Z,2.19
2018-12-17T06:57:52.543Z,2.19
2018-12-17T06:58:52.384Z,2.21
2018-12-17T06:59:52.649Z,2.2
2018-12-17T07:00:52.592Z,2.19
2018-12-17T07:01:52.730Z,2.2
2018-12-17T07:02:52.496Z,2.19
2018-12-17T07:03:52.349Z,2.21
2018-12-17T07:04:52.477Z,2.17
2018-12-17T07:05:52.415Z,2.18
2018-12-17T07:06:52.491Z,2.19
2018-12-17T07:07:52.602Z,2.2
2018-12-17T07:08:52.712Z,2.21
2018-12-17T07:09:52.345Z,2.21
2018-12-17T07:10:52.342Z,2.19
2018-12-17T07:11:52.375Z,2.24
2018-12-17T07:12:52.366Z,2.22
2018-12-17T07:13:52.572Z,2.21
2018-12-17T07:14:52.332Z,2.23
2018-12-17T07:15:52.323Z,2.22
2018-12-17T07:16:52.462Z,2.21
2018-12-17T07:17:52.380Z,2.21
2018-12-17T07:18:52.423Z,2.22
2018-12-17T07:19:52.349Z,2.19
2018-12-17T07:20:52.477Z,2.21
2018-12-17T07:21:52.801Z,2.2
2018-12-17T07:22:52.506Z,2.2
2018-12-17T07:23:52.387Z,2.19
2018-12-17T07:24:53.200Z,2.22
2018-12-17T07:25:52.702Z,2.2
2018-12-17T07:26:52.424Z,2.18
2018-12-17T07:27:52.503Z,2.21
2018-12-17T07:28:52.440Z,2.19
2018-12-17T07:29:52.352Z,2.2
2018-12-17T07:30:52.318Z,2.21
2018-12-17T07:31:52.434Z,2.23
2018-12-17T07:32:52.536Z,2.24
2018-12-17T07:33:52.345Z,2.25
2018-12-17T07:34:52.352Z,2.24
2018-12-17T07:35:53.052Z,2.28
2018-12-17T07:36:52.349Z,2.28
2018-12-17T07:37:52.608Z,2.23
2018-12-17T07:38:52.365Z,2.24
2018-12-17T07:39:52.286Z,2.26
2018-12-17T07:40:52.398Z,2.27
2018-12-17T07:41:52.333Z,2.24
2018-12-17T07:42:52.481Z,2.27
2018-12-17T07:43:52.415Z,2.27
2018-12-17T07:44:53.164Z,2.33
2018-12-17T07:45:52.359Z,2.33
2018-12-17T07:46:52.352Z,2.4
2018-12-17T07:47:52.328Z,2.42
2018-12-17T07:48:52.374Z,2.41
2018-12-17T07:49:52.593Z,2.38
2018-12-17T07:50:52.402Z,2.4
2018-12-17T07:51:52.420Z,2.47
2018-12-17T07:52:52.439Z,2.45
2018-12-17T07:53:52.640Z,2.54
2018-12-17T07:54:52.465Z,2.5
2018-12-17T07:55:52.517Z,2.51
2018-12-17T07:56:52.436Z,2.5
2018-12-17T07:57:53.047Z,2.51
2018-12-17T07:58:52.494Z,2.53
2018-12-17T07:59:57.202Z,2.6
2018-12-17T08:00:52.334Z,2.59
2018-12-17T08:01:52.643Z,2.57
2018-12-17T08:02:52.416Z,2.56
2018-12-17T08:03:52.339Z,2.58
2018-12-17T08:04:52.434Z,2.55
2018-12-17T08:05:52.380Z,2.58
2018-12-17T08:06:52.267Z,2.61
2018-12-17T08:07:52.300Z,2.6
2018-12-17T08:08:52.376Z,2.63
2018-12-17T08:09:52.447Z,2.61
2018-12-17T08:10:52.730Z,2.63
2018-12-17T08:11:52.432Z,2.64
2018-12-17T08:12:52.258Z,2.64
2018-12-17T08:13:52.318Z,2.64
2018-12-17T08:14:52.286Z,2.64
2018-12-17T08:15:52.282Z,2.69
2018-12-17T08:16:52.516Z,2.69
2018-12-17T08:17:52.333Z,2.68
2018-12-17T08:18:52.279Z,2.63
2018-12-17T08:19:52.341Z,2.65
2018-12-17T08:20:52.320Z,2.67
2018-12-17T08:21:52.280Z,2.65
2018-12-17T08:22:52.295Z,2.69
2018-12-17T08:23:52.392Z,2.7
2018-12-17T08:24:52.249Z,2.72
2018-12-17T08:25:52.243Z,2.73
2018-12-17T08:26:52.483Z,2.75
2018-12-17T08:27:52.645Z,2.74
2018-12-17T08:28:52.370Z,2.76
2018-12-17T08:29:52.289Z,2.73
2018-12-17T08:30:52.629Z,2.77
2018-12-17T08:31:52.304Z,2.76
2018-12-17T08:32:52.361Z,2.86
2018-12-17T08:33:52.467Z,2.87
2018-12-17T08:34:52.228Z,2.86
2018-12-17T08:35:52.282Z,2.86
2018-12-17T08:36:52.870Z,2.85
2018-12-17T08:37:52.485Z,2.84
2018-12-17T08:38:52.488Z,2.86
2018-12-17T08:39:52.708Z,2.88
2018-12-17T08:40:53.086Z,2.9
2018-12-17T08:41:52.475Z,2.91
2018-12-17T08:42:52.652Z,2.89
2018-12-17T08:43:52.345Z,2.9
2018-12-17T08:44:52.285Z,2.88
2018-12-17T08:45:52.219Z,2.88
2018-12-17T08:46:52.409Z,2.9
2018-12-17T08:47:52.433Z,2.9
2018-12-17T08:48:52.401Z,2.88
2018-12-17T08:49:52.460Z,2.85
2018-12-17T08:50:52.246Z,2.89
2018-12-17T08:51:52.243Z,2.87
2018-12-17T08:52:52.348Z,2.88
2018-12-17T08:53:53.374Z,2.89
2018-12-17T08:54:52.380Z,2.89
2018-12-17T08:55:52.388Z,2.87
2018-12-17T08:56:52.363Z,2.86
2018-12-17T08:57:52.320Z,2.87
2018-12-17T08:58:52.265Z,2.91
2018-12-17T08:59:52.399Z,2.9
2018-12-17T09:00:52.281Z,2.89
2018-12-17T09:01:52.222Z,2.88
2018-12-17T09:02:52.329Z,2.87
2018-12-17T09:03:52.354Z,2.87
2018-12-17T09:04:52.384Z,2.87
2018-12-17T09:05:52.456Z,2.83
2018-12-17T09:06:52.401Z,2.8
2018-12-17T09:07:52.235Z,2.86
2018-12-17T09:08:52.343Z,2.84
2018-12-17T09:09:52.210Z,2.86
2018-12-17T09:10:52.360Z,2.82
2018-12-17T09:11:52.471Z,2.82
2018-12-17T09:12:52.456Z,2.84
2018-12-17T09:13:52.287Z,2.84
2018-12-17T09:14:52.432Z,2.84
2018-12-17T09:15:52.269Z,2.85
2018-12-17T09:16:52.345Z,2.83
2018-12-17T09:17:52.183Z,2.82
2018-12-17T09:18:52.329Z,2.81
2018-12-17T09:19:53.002Z,2.81
2018-12-17T09:20:52.236Z,2.83
2018-12-17T09:21:52.350Z,2.81
2018-12-17T09:22:52.198Z,2.78
2018-12-17T09:23:52.370Z,2.85
2018-12-17T09:24:52.557Z,2.87
2018-12-17T09:25:52.172Z,2.86
2018-12-17T09:26:52.204Z,2.89
2018-12-17T09:27:52.342Z,2.88
2018-12-17T09:28:52.610Z,2.88
2018-12-17T09:29:52.330Z,2.87
2018-12-17T09:30:52.486Z,2.9
2018-12-17T09:31:52.488Z,2.95
2018-12-17T09:32:52.177Z,2.94
2018-12-17T09:33:52.541Z,2.92
2018-12-17T09:34:52.335Z,2.96
2018-12-17T09:35:54.740Z,2.95
2018-12-17T09:36:52.373Z,2.92
2018-12-17T09:37:52.505Z,2.94
2018-12-17T09:38:52.273Z,2.94
2018-12-17T09:39:52.825Z,2.95
2018-12-17T09:40:52.452Z,2.95
2018-12-17T09:41:52.221Z,2.93
2018-12-17T09:42:52.847Z,2.95
2018-12-17T09:43:52.284Z,2.94
2018-12-17T09:44:52.245Z,2.94
2018-12-17T09:45:52.383Z,2.96
2018-12-17T09:46:52.244Z,2.99
2018-12-17T09:47:52.188Z,2.96
2018-12-17T09:48:52.189Z,2.97
2018-12-17T09:49:52.319Z,2.96
2018-12-17T09:50:52.166Z,2.96
2018-12-17T09:51:52.199Z,2.97
2018-12-17T09:52:52.111Z,2.96
2018-12-17T09:53:52.684Z,2.98
2018-12-17T09:54:52.158Z,2.98
2018-12-17T09:55:52.238Z,2.96
2018-12-17T09:56:52.173Z,2.99
2018-12-17T09:57:52.203Z,2.97
2018-12-17T09:58:52.563Z,2.97
2018-12-17T09:59:52.277Z,2.97
2018-12-17T10:00:52.690Z,2.97
2018-12-17T10:01:52.244Z,2.96
2018-12-17T10:02:52.149Z,2.95
2018-12-17T10:03:52.155Z,2.96
2018-12-17T10:04:52.186Z,2.97
2018-12-17T10:05:52.264Z,3.01
2018-12-17T10:06:52.136Z,3.02
2018-12-17T10:07:52.240Z,3
2018-12-17T10:08:52.253Z,3.01
2018-12-17T10:09:52.220Z,3.01
2018-12-17T10:10:52.217Z,3.05
2018-12-17T10:11:52.768Z,3.06
2018-12-17T10:12:52.262Z,3.02
2018-12-17T10:13:52.286Z,3.02
2018-12-17T10:14:52.212Z,3
2018-12-17T10:15:52.100Z,3
2018-12-17T10:16:52.760Z,3.02
2018-12-17T10:17:52.179Z,3.04
2018-12-17T10:18:52.714Z,3.04
2018-12-17T10:19:52.191Z,2.98
2018-12-17T10:20:52.952Z,2.99
2018-12-17T10:21:52.325Z,3.07
2018-12-17T10:22:52.127Z,3.08
2018-12-17T10:23:52.226Z,3.05
2018-12-17T10:24:52.215Z,3.05
2018-12-17T10:25:52.341Z,3.03
2018-12-17T10:26:52.365Z,3.07
2018-12-17T10:27:52.305Z,3.08
2018-12-17T10:28:52.191Z,3.11
2018-12-17T10:29:52.315Z,3.07
2018-12-17T10:30:52.300Z,3.07
2018-12-17T10:31:52.290Z,3.06
2018-12-17T10:32:52.395Z,3.06
2018-12-17T10:33:52.087Z,3.05
2018-12-17T10:34:52.250Z,3.07
2018-12-17T10:35:52.288Z,3.05
2018-12-17T10:36:52.080Z,3.05
2018-12-17T10:37:52.165Z,3.03
2018-12-17T10:38:52.445Z,3.01
2018-12-17T10:39:52.263Z,3.07
2018-12-17T10:40:52.374Z,3.05
2018-12-17T10:41:52.348Z,3.06
2018-12-17T10:42:52.375Z,3.07
2018-12-17T10:43:52.228Z,3.04
2018-12-17T10:44:52.282Z,3.04
2018-12-17T10:45:52.253Z,3.05
2018-12-17T10:46:52.314Z,3.02
2018-12-17T10:47:52.388Z,3.03
2018-12-17T10:48:52.225Z,2.99
2018-12-17T10:49:52.091Z,3.04
2018-12-17T10:50:52.394Z,3.02
2018-12-17T10:51:52.240Z,3
2018-12-17T10:52:52.599Z,3.02
2018-12-17T10:53:52.159Z,3.02
2018-12-17T10:54:52.316Z,3.06
2018-12-17T10:55:52.139Z,3.06
2018-12-17T10:56:52.134Z,3.08
2018-12-17T10:57:52.423Z,3.06
2018-12-17T10:58:52.253Z,3.03
2018-12-17T10:59:52.127Z,3.03
2018-12-17T11:00:52.328Z,3.05
2018-12-17T11:01:52.169Z,3.03
2018-12-17T11:02:52.266Z,3.03
2018-12-17T11:03:52.340Z,3.04
2018-12-17T11:04:52.059Z,3.07
2018-12-17T11:05:52.301Z,3.05
2018-12-17T11:06:52.232Z,3.06
2018-12-17T11:07:52.401Z,3.07
2018-12-17T11:08:52.214Z,3.08
2018-12-17T11:09:52.455Z,3.1
2018-12-17T11:10:52.100Z,3.08
2018-12-17T11:11:52.123Z,3.04
2018-12-17T11:12:52.457Z,3.08
2018-12-17T11:13:52.576Z,3.07
2018-12-17T11:14:52.912Z,3.06
2018-12-17T11:15:52.478Z,3.07
2018-12-17T11:16:52.083Z,3.1
2018-12-17T11:17:52.198Z,3.12
2018-12-17T11:18:52.035Z,3.13
2018-12-17T11:19:52.106Z,3.12
2018-12-17T11:20:52.323Z,3.16
2018-12-17T11:21:52.328Z,3.14
2018-12-17T11:22:52.183Z,3.13
2018-12-17T11:23:52.143Z,3.13
2018-12-17T11:24:52.428Z,3.18
2018-12-17T11:25:52.650Z,3.15
2018-12-17T11:26:52.162Z,3.21
2018-12-17T11:27:52.370Z,3.21
2018-12-17T11:28:52.035Z,3.19
2018-12-17T11:29:52.318Z,3.17
2018-12-17T11:30:52.273Z,3.15
2018-12-17T11:31:52.308Z,3.17
2018-12-17T11:32:52.202Z,3.16
2018-12-17T11:33:52.190Z,3.2
2018-12-17T11:34:52.248Z,3.17
2018-12-17T11:35:52.837Z,3.21
2018-12-17T11:36:52.383Z,3.21
2018-12-17T11:37:52.187Z,3.19
2018-12-17T11:38:52.055Z,3.18
2018-12-17T11:39:52.642Z,3.19
2018-12-17T11:40:52.109Z,3.16
2018-12-17T11:41:52.641Z,3.16
2018-12-17T11:42:52.155Z,3.22
2018-12-17T11:43:52.313Z,3.25
2018-12-17T11:44:52.012Z,3.28
2018-12-17T11:45:52.091Z,3.29
2018-12-17T11:46:52.292Z,3.3
2018-12-17T11:47:52.257Z,3.31
2018-12-17T11:48:51.965Z,3.28
2018-12-17T11:49:52.093Z,3.3
2018-12-17T11:50:52.169Z,3.29
2018-12-17T11:51:52.148Z,3.29
2018-12-17T11:52:52.183Z,3.37
2018-12-17T11:53:52.306Z,3.39
2018-12-17T11:54:52.000Z,3.36
2018-12-17T11:55:52.859Z,3.33
2018-12-17T11:56:52.276Z,3.36
2018-12-17T11:57:52.037Z,3.38
2018-12-17T11:58:52.396Z,3.37
2018-12-17T11:59:51.951Z,3.37
2018-12-17T12:00:54.400Z,3.38
2018-12-17T12:01:52.081Z,3.44
2018-12-17T12:02:59.589Z,3.42
2018-12-17T12:03:52.086Z,3.42
2018-12-17T12:04:52.266Z,3.46
2018-12-17T12:05:52.182Z,3.45
2018-12-17T12:06:52.059Z,3.41
2018-12-17T12:07:52.335Z,3.38
2018-12-17T12:08:52.001Z,3.4
2018-12-17T12:09:52.081Z,3.48
2018-12-17T12:10:52.107Z,3.44
2018-12-17T12:11:52.130Z,3.43
2018-12-17T12:12:52.037Z,3.41
2018-12-17T12:13:52.026Z,3.41
2018-12-17T12:14:52.100Z,3.42
2018-12-17T12:15:52.212Z,3.42
2018-12-17T12:16:52.357Z,3.48
2018-12-17T12:17:52.221Z,3.5
2018-12-17T12:18:52.114Z,3.54
2018-12-17T12:19:52.288Z,3.56
2018-12-17T12:20:52.309Z,3.57
2018-12-17T12:21:52.390Z,3.63
2018-12-17T12:22:52.646Z,3.65
2018-12-17T12:23:52.350Z,3.66
2018-12-17T12:24:52.102Z,3.62
2018-12-17T12:25:51.971Z,3.59
2018-12-17T12:26:52.181Z,3.54
2018-12-17T12:27:51.941Z,3.62
2018-12-17T12:28:51.957Z,3.62
2018-12-17T12:29:51.952Z,3.62
2018-12-17T12:30:52.414Z,3.59
2018-12-17T12:31:52.005Z,3.62
2018-12-17T12:32:51.951Z,3.58
2018-12-17T12:33:52.047Z,3.6
2018-12-17T12:34:52.034Z,3.61
2018-12-17T12:35:52.250Z,3.69
2018-12-17T12:36:52.134Z,3.69
2018-12-17T12:37:51.883Z,3.72
2018-12-17T12:38:52.013Z,3.75
2018-12-17T12:39:52.202Z,3.74
2018-12-17T12:40:52.047Z,3.72
2018-12-17T12:41:52.068Z,3.67
2018-12-17T12:42:52.301Z,3.67
2018-12-17T12:43:52.295Z,3.74
2018-12-17T12:44:51.946Z,3.74
2018-12-17T12:45:52.055Z,3.75
2018-12-17T12:46:51.965Z,3.75
2018-12-17T12:47:52.047Z,3.73
2018-12-17T12:48:52.153Z,3.77
2018-12-17T12:49:52.542Z,3.69
2018-12-17T12:50:51.971Z,3.67
2018-12-17T12:51:52.953Z,3.69
2018-12-17T12:52:52.326Z,3.63
2018-12-17T12:53:52.148Z,3.68
2018-12-17T12:54:52.144Z,3.73
2018-12-17T12:55:52.465Z,3.81
2018-12-17T12:56:52.562Z,3.88
2018-12-17T12:57:52.022Z,3.88
2018-12-17T12:58:52.195Z,3.81
2018-12-17T12:59:52.047Z,3.74
2018-12-17T13:00:52.221Z,3.74
2018-12-17T13:01:52.282Z,3.78
2018-12-17T13:02:52.161Z,3.77
2018-12-17T13:03:52.106Z,3.78
2018-12-17T13:04:52.086Z,3.81
2018-12-17T13:05:51.961Z,3.84
2018-12-17T13:06:52.452Z,3.84
2018-12-17T13:07:52.055Z,3.87
2018-12-17T13:08:52.131Z,3.9
2018-12-17T13:09:52.135Z,4
2018-12-17T13:10:51.864Z,4.01
2018-12-17T13:11:51.984Z,4
2018-12-17T13:12:52.505Z,3.95
2018-12-17T13:13:51.926Z,3.99
2018-12-17T13:14:51.884Z,3.98
2018-12-17T13:15:52.310Z,3.96
2018-12-17T13:16:52.323Z,4
2018-12-17T13:17:52.454Z,3.98
2018-12-17T13:18:52.026Z,3.93
2018-12-17T13:19:51.867Z,3.89
2018-12-17T13:20:52.708Z,3.87
2018-12-17T13:21:52.005Z,3.9
2018-12-17T13:22:51.998Z,3.92